createdAt,value
2016-05-23T00:00:02.947Z,47.8
2016-05-23T00:01:02.981Z,47.12
2016-05-23T00:02:03.047Z,47.12
2016-05-23T00:03:03.081Z,47.12
2016-05-23T00:04:03.114Z,47.7
2016-05-23T00:05:03.164Z,47.89
2016-05-23T00:06:03.214Z,48.08
2016-05-23T00:07:03.247Z,48.86
2016-05-23T00:08:03.281Z,48.57
2016-05-23T00:09:03.206Z,48.35
2016-05-23T00:10:03.225Z,48.44
2016-05-23T00:11:03.274Z,48.64
2016-05-23T00:12:03.464Z,49.12
2016-05-23T00:13:03.514Z,48.93
2016-05-23T00:14:04.032Z,48.93
2016-05-23T00:15:03.596Z,48.93
2016-05-23T00:16:03.646Z,49.7
2016-05-23T00:17:03.728Z,49.99
2016-05-23T00:18:03.730Z,49.7
2016-05-23T00:19:03.779Z,49.32
2016-05-23T00:20:03.830Z,49.79
2016-05-23T00:21:03.863Z,50.15
2016-05-23T00:22:03.897Z,50.66
2016-05-23T00:23:03.946Z,50.83
2016-05-23T00:24:03.997Z,50.73
2016-05-23T00:25:04.030Z,51.02
2016-05-23T00:26:04.079Z,51.21
2016-05-23T00:27:04.115Z,50.63
2016-05-23T00:28:04.022Z,50.73
2016-05-23T00:29:04.229Z,51.02
2016-05-23T00:30:04.090Z,50.63
2016-05-23T00:31:04.312Z,51.21
2016-05-23T00:32:04.346Z,51.31
2016-05-23T00:33:04.380Z,51.12
2016-05-23T00:34:04.445Z,50.63
2016-05-23T00:35:04.511Z,50.63
2016-05-23T00:36:04.513Z,50.93
2016-05-23T00:37:04.562Z,51.02
2016-05-23T00:38:04.612Z,51.5
2016-05-23T00:39:04.522Z,51.41
2016-05-23T00:40:04.680Z,51.89
2016-05-23T00:41:04.730Z,51.7
2016-05-23T00:42:04.810Z,51.7
2016-05-23T00:43:04.657Z,51.79
2016-05-23T00:44:04.863Z,51.89
2016-05-23T00:45:04.756Z,52.18
2016-05-23T00:46:04.790Z,52.18
2016-05-23T00:47:04.996Z,52.08
2016-05-23T00:48:04.874Z,52.37
2016-05-23T00:49:05.094Z,52.47
2016-05-23T00:50:05.129Z,52.47
2016-05-23T00:51:05.163Z,52.85
2016-05-23T00:52:05.213Z,53.05
2016-05-23T00:53:05.246Z,53.05
2016-05-23T00:54:05.295Z,53.72
2016-05-23T00:55:05.174Z,53.62
2016-05-23T00:56:05.426Z,53.59
2016-05-23T00:57:05.428Z,53.81
2016-05-23T00:58:05.479Z,53.81
2016-05-23T00:59:05.637Z,53.62
2016-05-23T01:00:05.562Z,53.72
2016-05-23T01:01:05.595Z,54.3
2016-05-23T01:02:05.646Z,54.39
2016-05-23T01:03:05.711Z,54.27
2016-05-23T01:04:05.728Z,54.2
2016-05-23T01:05:05.623Z,54.36
2016-05-23T01:06:05.812Z,54.27
2016-05-23T01:07:05.690Z,54.27
2016-05-23T01:08:05.895Z,54.2
2016-05-23T01:09:05.945Z,54.08
2016-05-23T01:10:05.823Z,54.3
2016-05-23T01:11:06.028Z,54.2
2016-05-23T01:12:06.063Z,54.3
2016-05-23T01:13:06.113Z,54.17
2016-05-23T01:14:06.225Z,54.08
2016-05-23T01:15:06.196Z,54.17
2016-05-23T01:16:06.246Z,54.08
2016-05-23T01:17:06.295Z,54.17
2016-05-23T01:18:06.344Z,54.36
2016-05-23T01:19:06.379Z,54.17
2016-05-23T01:20:06.413Z,54.08
2016-05-23T01:21:06.494Z,54.17
2016-05-23T01:22:06.496Z,54.17
2016-05-23T01:23:06.546Z,53.88
2016-05-23T01:24:06.595Z,54.08
2016-05-23T01:25:06.473Z,54.65
2016-05-23T01:26:06.679Z,53.98
2016-05-23T01:27:06.712Z,54.36
2016-05-23T01:28:06.763Z,54.56
2016-05-23T01:29:06.843Z,54.27
2016-05-23T01:30:06.845Z,54.56
2016-05-23T01:31:06.723Z,54.46
2016-05-23T01:32:06.945Z,54.94
2016-05-23T01:33:06.963Z,54.65
2016-05-23T01:34:06.856Z,55.13
2016-05-23T01:35:07.078Z,55.04
2016-05-23T01:36:06.940Z,55.04
2016-05-23T01:37:07.145Z,54.27
2016-05-23T01:38:07.180Z,54.94
2016-05-23T01:39:07.260Z,55.11
2016-05-23T01:40:07.279Z,55.33
2016-05-23T01:41:07.313Z,55.2
2016-05-23T01:42:07.362Z,55.98
2016-05-23T01:43:07.397Z,55.11
2016-05-23T01:44:07.446Z,55.4
2016-05-23T01:45:07.480Z,55.98
2016-05-23T01:46:07.577Z,55.88
2016-05-23T01:47:07.579Z,55.88
2016-05-23T01:48:07.613Z,55.68
2016-05-23T01:49:07.663Z,55.88
2016-05-23T01:50:07.712Z,56.26
2016-05-23T01:51:07.761Z,56.07
2016-05-23T01:52:07.796Z,56.26
2016-05-23T01:53:07.813Z,55.98
2016-05-23T01:54:07.910Z,56.16
2016-05-23T01:55:07.913Z,56.07
2016-05-23T01:56:07.963Z,56.16
2016-05-23T01:57:08.012Z,56.16
2016-05-23T01:58:08.046Z,56.26
2016-05-23T01:59:07.940Z,56.55
2016-05-23T02:00:08.129Z,56.55
2016-05-23T02:01:08.179Z,56.36
2016-05-23T02:02:08.212Z,56.55
2016-05-23T02:03:08.263Z,56.55
2016-05-23T02:04:08.312Z,56.65
2016-05-23T02:05:08.392Z,56.65
2016-05-23T02:06:08.396Z,56.65
2016-05-23T02:07:08.429Z,56.26
2016-05-23T02:08:08.478Z,56.55
2016-05-23T02:09:08.514Z,57.13
2016-05-23T02:10:08.563Z,56.74
2016-05-23T02:11:08.597Z,56.45
2016-05-23T02:12:08.678Z,56.74
2016-05-23T02:13:08.680Z,57.1
2016-05-23T02:14:08.713Z,56.81
2016-05-23T02:15:08.811Z,57.1
2016-05-23T02:16:08.828Z,57.1
2016-05-23T02:17:08.863Z,57.1
2016-05-23T02:18:08.896Z,57
2016-05-23T02:19:09.008Z,57
2016-05-23T02:20:08.855Z,57.29
2016-05-23T02:21:09.046Z,57.68
2016-05-23T02:22:09.064Z,57.48
2016-05-23T02:23:09.144Z,57.68
2016-05-23T02:24:09.147Z,57.29
2016-05-23T02:25:09.041Z,57.2
2016-05-23T02:26:09.230Z,57.39
2016-05-23T02:27:09.280Z,57.1
2016-05-23T02:28:09.330Z,57.97
2016-05-23T02:29:09.926Z,57.58
2016-05-23T02:30:09.429Z,57.68
2016-05-23T02:31:09.463Z,57.39
2016-05-23T02:32:09.340Z,57.29
2016-05-23T02:33:09.547Z,57.29
2016-05-23T02:34:09.424Z,57.48
2016-05-23T02:35:09.630Z,57.68
2016-05-23T02:36:09.664Z,57.48
2016-05-23T02:37:09.759Z,57.48
2016-05-23T02:38:09.607Z,57.87
2016-05-23T02:39:09.797Z,57.77
2016-05-23T02:40:09.847Z,57.97
2016-05-23T02:41:09.911Z,57.68
2016-05-23T02:42:09.931Z,57.93
2016-05-23T02:43:09.980Z,58.15
2016-05-23T02:44:10.029Z,58.32
2016-05-23T02:45:10.047Z,59.09
2016-05-23T02:46:10.097Z,59.28
2016-05-23T02:47:10.131Z,59.66
2016-05-23T02:48:10.180Z,60.24
2016-05-23T02:49:10.230Z,60.53
2016-05-23T02:50:10.264Z,60.53
2016-05-23T02:51:10.314Z,60.53
2016-05-23T02:52:10.363Z,60.63
2016-05-23T02:53:10.241Z,61.11
2016-05-23T02:54:10.446Z,61.01
2016-05-23T02:55:10.480Z,61.58
2016-05-23T02:56:10.390Z,61.65
2016-05-23T02:57:10.424Z,61.27
2016-05-23T02:58:10.599Z,61.27
2016-05-23T02:59:11.257Z,61.36
2016-05-23T03:00:10.696Z,61.55
2016-05-23T03:01:10.746Z,61.65
2016-05-23T03:02:10.781Z,60.98
2016-05-23T03:03:10.674Z,61.36
2016-05-23T03:04:10.707Z,61.65
2016-05-23T03:05:10.898Z,61.46
2016-05-23T03:06:10.947Z,62.04
2016-05-23T03:07:10.981Z,61.75
2016-05-23T03:08:11.031Z,61.36
2016-05-23T03:09:11.081Z,61.84
2016-05-23T03:10:11.130Z,61.94
2016-05-23T03:11:11.164Z,62.04
2016-05-23T03:12:11.214Z,62.23
2016-05-23T03:13:11.248Z,61.84
2016-05-23T03:14:11.313Z,62.23
2016-05-23T03:15:11.331Z,62.13
2016-05-23T03:16:11.381Z,62.42
2016-05-23T03:17:11.431Z,62.13
2016-05-23T03:18:11.464Z,62.13
2016-05-23T03:19:11.497Z,62.23
2016-05-23T03:20:11.564Z,61.94
2016-05-23T03:21:11.597Z,62.42
2016-05-23T03:22:11.631Z,62.52
2016-05-23T03:23:11.681Z,62.23
2016-05-23T03:24:11.715Z,62.61
2016-05-23T03:25:11.749Z,62.32
2016-05-23T03:26:11.799Z,62.71
2016-05-23T03:27:11.880Z,62.71
2016-05-23T03:28:11.882Z,62.52
2016-05-23T03:29:11.931Z,62.32
2016-05-23T03:30:11.981Z,62.42
2016-05-23T03:31:12.046Z,62.13
2016-05-23T03:32:12.065Z,62.52
2016-05-23T03:33:12.098Z,62.42
2016-05-23T03:34:12.195Z,62.52
2016-05-23T03:35:12.197Z,62.61
2016-05-23T03:36:12.216Z,62.42
2016-05-23T03:37:12.265Z,62.61
2016-05-23T03:38:12.315Z,62.13
2016-05-23T03:39:12.348Z,62.52
2016-05-23T03:40:12.383Z,62.04
2016-05-23T03:41:12.495Z,62.81
2016-05-23T03:42:12.482Z,62.32
2016-05-23T03:43:12.516Z,62.13
2016-05-23T03:44:12.581Z,62.45
2016-05-23T03:45:12.443Z,62.23
2016-05-23T03:46:12.492Z,62.13
2016-05-23T03:47:12.698Z,61.87
2016-05-23T03:48:12.747Z,62.26
2016-05-23T03:49:13.267Z,61.78
2016-05-23T03:50:12.831Z,61.58
2016-05-23T03:51:12.881Z,61.87
2016-05-23T03:52:12.744Z,61.87
2016-05-23T03:53:12.949Z,61.97
2016-05-23T03:54:12.983Z,61.97
2016-05-23T03:55:13.033Z,61.68
2016-05-23T03:56:13.067Z,61.78
2016-05-23T03:57:12.960Z,62.07
2016-05-23T03:58:13.182Z,61.87
2016-05-23T03:59:13.277Z,61.97
2016-05-23T04:00:13.312Z,61.87
2016-05-23T04:01:13.299Z,61.97
2016-05-23T04:02:13.332Z,61.78
2016-05-23T04:03:13.382Z,61.87
2016-05-23T04:04:13.416Z,61.78
2016-05-23T04:05:13.326Z,62.07
2016-05-23T04:06:13.499Z,61.78
2016-05-23T04:07:13.549Z,61.87
2016-05-23T04:08:13.584Z,62.45
2016-05-23T04:09:13.618Z,61.97
2016-05-23T04:10:13.510Z,61.58
2016-05-23T04:11:13.717Z,62
2016-05-23T04:12:13.765Z,61.97
2016-05-23T04:13:13.800Z,61.91
2016-05-23T04:14:13.834Z,61.81
2016-05-23T04:15:13.884Z,61.52
2016-05-23T04:16:13.948Z,62
2016-05-23T04:17:13.967Z,62.1
2016-05-23T04:18:14.001Z,61.91
2016-05-23T04:19:14.050Z,62
2016-05-23T04:20:14.147Z,61.81
2016-05-23T04:21:14.134Z,61.91
2016-05-23T04:22:14.199Z,61.81
2016-05-23T04:23:14.233Z,61.81
2016-05-23T04:24:14.252Z,61.91
2016-05-23T04:25:14.300Z,62
2016-05-23T04:26:14.350Z,61.81
2016-05-23T04:27:14.400Z,61.61
2016-05-23T04:28:14.278Z,62
2016-05-23T04:29:14.702Z,61.91
2016-05-23T04:30:14.502Z,61.81
2016-05-23T04:31:14.566Z,61.81
2016-05-23T04:32:14.444Z,62.19
2016-05-23T04:33:14.650Z,62.48
2016-05-23T04:34:14.699Z,62
2016-05-23T04:35:14.734Z,61.97
2016-05-23T04:36:14.784Z,62.38
2016-05-23T04:37:14.818Z,62.38
2016-05-23T04:38:14.882Z,62.38
2016-05-23T04:39:14.932Z,62.68
2016-05-23T04:40:14.951Z,62.58
2016-05-23T04:41:15.015Z,62.48
2016-05-23T04:42:15.018Z,62.29
2016-05-23T04:43:15.068Z,62.38
2016-05-23T04:44:15.649Z,62.45
2016-05-23T04:45:15.151Z,62.87
2016-05-23T04:46:15.186Z,62.29
2016-05-23T04:47:15.235Z,62.58
2016-05-23T04:48:15.269Z,62.77
2016-05-23T04:49:15.319Z,62.77
2016-05-23T04:50:15.634Z,62.58
2016-05-23T04:51:15.403Z,63.45
2016-05-23T04:52:15.484Z,62.96
2016-05-23T04:53:15.375Z,62.77
2016-05-23T04:54:15.536Z,62.96
2016-05-23T04:55:15.600Z,63.25
2016-05-23T04:56:15.619Z,63.25
2016-05-23T04:57:15.669Z,63.06
2016-05-23T04:58:15.547Z,63.35
2016-05-23T04:59:15.861Z,62.87
2016-05-23T05:00:15.660Z,62.87
2016-05-23T05:01:15.836Z,62.87
2016-05-23T05:02:15.869Z,62.58
2016-05-23T05:03:15.919Z,63.25
2016-05-23T05:04:15.952Z,63.35
2016-05-23T05:05:16.018Z,62.48
2016-05-23T05:06:16.036Z,62.87
2016-05-23T05:07:15.930Z,63.02
2016-05-23T05:08:16.120Z,63.12
2016-05-23T05:09:16.435Z,63.45
2016-05-23T05:10:16.251Z,63.32
2016-05-23T05:11:16.253Z,63.6
2016-05-23T05:12:16.302Z,63.32
2016-05-23T05:13:16.352Z,63.89
2016-05-23T05:14:16.714Z,63.7
2016-05-23T05:15:16.435Z,63.7
2016-05-23T05:16:16.469Z,63.32
2016-05-23T05:17:16.535Z,63.7
2016-05-23T05:18:16.568Z,63.7
2016-05-23T05:19:16.603Z,63.79
2016-05-23T05:20:17.261Z,64.18
2016-05-23T05:21:16.687Z,64.09
2016-05-23T05:22:16.564Z,63.79
2016-05-23T05:23:16.941Z,64.56
2016-05-23T05:24:16.804Z,63.89
2016-05-23T05:25:16.853Z,64.09
2016-05-23T05:26:16.886Z,63.99
2016-05-23T05:27:16.937Z,64.09
2016-05-23T05:28:16.986Z,64.76
2016-05-23T05:29:16.911Z,64.09
2016-05-23T05:30:17.055Z,64.37
2016-05-23T05:31:17.103Z,64.56
2016-05-23T05:32:17.388Z,64.85
2016-05-23T05:33:17.312Z,64.37
2016-05-23T05:34:17.221Z,64.66
2016-05-23T05:35:17.271Z,64.76
2016-05-23T05:36:17.305Z,64.76
2016-05-23T05:37:17.369Z,64.28
2016-05-23T05:38:17.404Z,63.99
2016-05-23T05:39:18.500Z,64.18
2016-05-23T05:40:17.519Z,63.99
2016-05-23T05:41:17.521Z,64.76
2016-05-23T05:42:17.571Z,64.09
2016-05-23T05:43:17.605Z,63.41
2016-05-23T05:44:17.654Z,64.18
2016-05-23T05:45:17.704Z,63.99
2016-05-23T05:46:17.784Z,64.28
2016-05-23T05:47:17.771Z,64.37
2016-05-23T05:48:17.837Z,64.47
2016-05-23T05:49:18.151Z,63.7
2016-05-23T05:50:17.904Z,63.32
2016-05-23T05:51:17.939Z,63.45
2016-05-23T05:52:18.004Z,63.73
2016-05-23T05:53:18.037Z,63.79
2016-05-23T05:54:18.072Z,63.73
2016-05-23T05:55:18.215Z,63.64
2016-05-23T05:56:18.139Z,64.12
2016-05-23T05:57:18.205Z,63.92
2016-05-23T05:58:18.239Z,63.35
2016-05-23T05:59:18.320Z,64.12
2016-05-23T06:00:18.353Z,63.92
2016-05-23T06:01:18.763Z,64.02
2016-05-23T06:02:18.406Z,62.96
2016-05-23T06:03:18.644Z,63.35
2016-05-23T06:04:18.505Z,63.64
2016-05-23T06:05:18.570Z,63.45
2016-05-23T06:06:18.589Z,63.35
2016-05-23T06:07:18.669Z,63.54
2016-05-23T06:08:18.671Z,63.25
2016-05-23T06:09:18.705Z,63.57
2016-05-23T06:10:18.755Z,63.06
2016-05-23T06:11:18.790Z,63.38
2016-05-23T06:12:18.838Z,63.38
2016-05-23T06:13:18.873Z,63.28
2016-05-23T06:14:18.937Z,62.8
2016-05-23T06:15:19.066Z,63.06
2016-05-23T06:16:19.006Z,62.8
2016-05-23T06:17:18.899Z,63.09
2016-05-23T06:18:19.090Z,63.09
2016-05-23T06:19:19.155Z,63.38
2016-05-23T06:20:19.173Z,63.09
2016-05-23T06:21:19.379Z,62.61
2016-05-23T06:22:19.507Z,63.18
2016-05-23T06:23:20.212Z,63.38
2016-05-23T06:24:19.355Z,63.09
2016-05-23T06:25:19.248Z,62.23
2016-05-23T06:26:20.658Z,62.41
2016-05-23T06:27:19.520Z,62.51
2016-05-23T06:28:19.569Z,62.8
2016-05-23T06:29:19.838Z,62.32
2016-05-23T06:30:20.747Z,62.35
2016-05-23T06:31:19.734Z,62.93
2016-05-23T06:32:19.705Z,62.35
2016-05-23T06:33:20.458Z,61.97
2016-05-23T06:34:20.070Z,61.49
2016-05-23T06:35:20.167Z,61.68
2016-05-23T06:36:20.153Z,61.58
2016-05-23T06:37:20.156Z,61.58
2016-05-23T06:38:20.206Z,61.49
2016-05-23T06:39:19.991Z,61.49
2016-05-23T06:40:20.710Z,61.58
2016-05-23T06:41:20.089Z,61.58
2016-05-23T06:42:20.123Z,61.22
2016-05-23T06:43:20.172Z,60.65
2016-05-23T06:44:20.456Z,60.46
2016-05-23T06:45:23.427Z,60.46
2016-05-23T06:46:20.305Z,60.2
2016-05-23T06:47:20.340Z,59.33
2016-05-23T06:48:20.233Z,59.33
2016-05-23T06:49:20.464Z,59.45
2016-05-23T06:50:20.367Z,59.36
2016-05-23T06:51:22.833Z,58.88
2016-05-23T06:52:20.658Z,58.91
2016-05-23T06:53:21.451Z,58.42
2016-05-23T06:54:20.775Z,57.97
2016-05-23T06:55:21.099Z,57.68
2016-05-23T06:56:21.143Z,56.94
2016-05-23T06:57:20.999Z,56.65
2016-05-23T06:58:21.010Z,55.78
2016-05-23T06:59:20.907Z,55.13
2016-05-23T07:00:22.287Z,54.84
2016-05-23T07:01:21.169Z,54.46
2016-05-23T07:02:21.033Z,54.36
2016-05-23T07:03:21.321Z,53.78
2016-05-23T07:04:21.293Z,53.91
2016-05-23T07:05:23.172Z,52.84
2016-05-23T07:06:21.425Z,52.55
2016-05-23T07:07:23.273Z,52.53
2016-05-23T07:08:21.465Z,52.72
2016-05-23T07:09:21.874Z,52.62
2016-05-23T07:10:22.486Z,52.72
2016-05-23T07:11:24.225Z,53.11
2016-05-23T07:12:22.039Z,53.39
2016-05-23T07:13:22.214Z,52.91
2016-05-23T07:14:22.749Z,53.01
2016-05-23T07:15:23.112Z,53.39
2016-05-23T07:16:23.864Z,53.2
2016-05-23T07:17:21.790Z,52.62
2016-05-23T07:18:21.918Z,52.91
2016-05-23T07:19:21.982Z,52.62
2016-05-23T07:20:22.157Z,53.2
2016-05-23T07:21:24.222Z,53.39
2016-05-23T07:22:23.007Z,52.43
2016-05-23T07:23:22.557Z,52.62
2016-05-23T07:24:23.012Z,51.97
2016-05-23T07:25:22.343Z,52.62
2016-05-23T07:26:23.579Z,52.62
2016-05-23T07:27:23.254Z,52.62
2016-05-23T07:28:23.694Z,53.11
2016-05-23T07:29:23.243Z,53.56
2016-05-23T07:30:22.950Z,53.47
2016-05-23T07:31:24.890Z,54.24
2016-05-23T07:32:23.361Z,55.2
2016-05-23T07:33:23.895Z,55.56
2016-05-23T07:34:24.428Z,55.46
2016-05-23T07:35:24.792Z,55.27
2016-05-23T07:36:24.184Z,55.27
2016-05-23T07:37:23.890Z,55.08
2016-05-23T07:38:23.987Z,55.76
2016-05-23T07:39:23.990Z,56.04
2016-05-23T07:40:23.586Z,55.94
2016-05-23T07:41:23.839Z,55.94
2016-05-23T07:42:23.888Z,55.56
2016-05-23T07:43:23.735Z,56.14
2016-05-23T07:44:24.487Z,56.14
2016-05-23T07:45:23.147Z,56.52
2016-05-23T07:46:23.180Z,56.69
2016-05-23T07:47:23.245Z,57.17
2016-05-23T07:48:24.482Z,57.56
2016-05-23T07:49:23.657Z,58.33
2016-05-23T07:50:23.378Z,58.23
2016-05-23T07:51:24.647Z,58.62
2016-05-23T07:52:23.915Z,58.2
2016-05-23T07:53:23.730Z,58.2
2016-05-23T07:54:23.607Z,58.3
2016-05-23T07:55:23.860Z,59.17
2016-05-23T07:56:27.348Z,58.59
2016-05-23T07:57:23.679Z,58.59
2016-05-23T07:58:23.728Z,58.4
2016-05-23T07:59:24.246Z,58.11
2016-05-23T08:00:23.826Z,57.92
2016-05-23T08:01:26.877Z,58.42
2016-05-23T08:02:23.911Z,58.33
2016-05-23T08:03:23.945Z,58.14
2016-05-23T08:04:24.009Z,58.33
2016-05-23T08:05:24.044Z,57.94
2016-05-23T08:06:24.078Z,57.85
2016-05-23T08:07:24.159Z,57.97
2016-05-23T08:08:24.161Z,58.17
2016-05-23T08:09:24.211Z,57.87
2016-05-23T08:10:24.245Z,57.23
2016-05-23T08:11:25.154Z,57.42
2016-05-23T08:12:24.984Z,56.74
2016-05-23T08:13:24.394Z,56
2016-05-23T08:14:24.944Z,55.81
2016-05-23T08:15:24.492Z,55.42
2016-05-23T08:16:25.619Z,55.55
2016-05-23T08:17:24.560Z,54.77
2016-05-23T08:18:24.625Z,54.68
2016-05-23T08:19:24.691Z,54.68
2016-05-23T08:20:24.585Z,53.93
2016-05-23T08:21:24.743Z,53.16
2016-05-23T08:22:24.808Z,53.13
2016-05-23T08:23:25.013Z,53.16
2016-05-23T08:24:24.938Z,53.45
2016-05-23T08:25:24.925Z,52.58
2016-05-23T08:26:27.476Z,52.94
2016-05-23T08:27:25.009Z,52.58
2016-05-23T08:28:25.340Z,52.55
2016-05-23T08:29:26.139Z,52.36
2016-05-23T08:30:25.204Z,51.87
2016-05-23T08:31:25.192Z,51.78
2016-05-23T08:32:25.257Z,51.39
2016-05-23T08:33:25.322Z,51.87
2016-05-23T08:34:25.387Z,51.87
2016-05-23T08:35:25.406Z,51.61
2016-05-23T08:36:27.393Z,51.71
2016-05-23T08:37:25.458Z,51.03
2016-05-23T08:38:25.523Z,51.03
2016-05-23T08:39:25.745Z,51.9
2016-05-23T08:40:25.606Z,51.54
2016-05-23T08:41:25.937Z,51.51
2016-05-23T08:42:25.924Z,51.44
2016-05-23T08:43:25.880Z,51.54
2016-05-23T08:44:26.352Z,51.25
2016-05-23T08:45:29.558Z,51.15
2016-05-23T08:46:27.576Z,51.47
2016-05-23T08:47:26.375Z,51.06
2016-05-23T08:48:28.144Z,51.08
2016-05-23T08:49:28.319Z,51.18
2016-05-23T08:50:27.446Z,50.12
2016-05-23T08:51:26.120Z,50.21
2016-05-23T08:52:27.873Z,50.21
2016-05-23T08:53:28.141Z,50.02
2016-05-23T08:54:28.363Z,50.98
2016-05-23T08:55:28.632Z,50.21
2016-05-23T08:56:27.807Z,50.31
2016-05-23T08:57:27.527Z,49.85
2016-05-23T08:58:27.437Z,49.56
2016-05-23T08:59:28.767Z,48.97
2016-05-23T09:00:26.551Z,49.17
2016-05-23T09:01:27.132Z,49.37
2016-05-23T09:02:26.650Z,48.81
2016-05-23T09:03:26.871Z,48.13
2016-05-23T09:04:27.156Z,48.22
2016-05-23T09:05:26.768Z,48.03
2016-05-23T09:06:26.817Z,47.84
2016-05-23T09:07:27.086Z,47.84
2016-05-23T09:08:27.995Z,47.74
2016-05-23T09:09:29.325Z,47.94
2016-05-23T09:10:27.031Z,47.16
2016-05-23T09:11:28.080Z,47.26
2016-05-23T09:12:27.099Z,47.16
2016-05-23T09:13:27.164Z,46.97
2016-05-23T09:14:27.511Z,47.26
2016-05-23T09:15:27.623Z,46.87
2016-05-23T09:16:27.438Z,46.99
2016-05-23T09:17:27.316Z,46.8
2016-05-23T09:18:27.350Z,46.89
2016-05-23T09:19:27.462Z,46.51
2016-05-23T09:20:27.496Z,46.31
2016-05-23T09:21:28.045Z,46.24
2016-05-23T09:22:27.704Z,45.65
2016-05-23T09:23:27.660Z,45.27
2016-05-23T09:24:27.818Z,45.27
2016-05-23T09:25:27.774Z,44.68
2016-05-23T09:26:27.746Z,44.88
2016-05-23T09:27:27.780Z,44.98
2016-05-23T09:28:27.829Z,44.81
2016-05-23T09:29:27.926Z,44.61
2016-05-23T09:30:27.929Z,44.42
2016-05-23T09:31:27.993Z,44.13
2016-05-23T09:32:28.043Z,43.86
2016-05-23T09:33:28.265Z,43.95
2016-05-23T09:34:28.158Z,43.49
2016-05-23T09:35:31.114Z,43.49
2016-05-23T09:36:28.070Z,43.49
2016-05-23T09:37:28.837Z,43.49
2016-05-23T09:38:29.559Z,42.52
2016-05-23T09:39:28.359Z,42.81
2016-05-23T09:40:28.752Z,42.71
2016-05-23T09:41:28.739Z,42.64
2016-05-23T09:42:28.539Z,42.44
2016-05-23T09:43:28.558Z,42.44
2016-05-23T09:44:28.607Z,42.05
2016-05-23T09:45:28.641Z,42.05
2016-05-23T09:46:29.144Z,41.96
2016-05-23T09:47:29.177Z,41.86
2016-05-23T09:48:28.790Z,41.57
2016-05-23T09:49:28.839Z,41.39
2016-05-23T09:50:28.888Z,41.2
2016-05-23T09:51:28.938Z,41.2
2016-05-23T09:52:29.363Z,40.79
2016-05-23T09:53:29.210Z,41.08
2016-05-23T09:54:30.165Z,41.18
2016-05-23T09:55:29.136Z,41.18
2016-05-23T09:56:29.030Z,41.16
2016-05-23T09:57:29.220Z,41.64
2016-05-23T09:58:29.832Z,42.23
2016-05-23T09:59:29.366Z,42.02
2016-05-23T10:00:29.557Z,41.82
2016-05-23T10:01:29.684Z,42.21
2016-05-23T10:02:31.062Z,42.23
2016-05-23T10:03:29.596Z,42.61
2016-05-23T10:04:29.911Z,42.71
2016-05-23T10:05:29.617Z,42.69
2016-05-23T10:06:29.510Z,42.81
2016-05-23T10:07:29.559Z,42.5
2016-05-23T10:08:29.765Z,42.4
2016-05-23T10:09:30.173Z,42.86
2016-05-23T10:10:29.880Z,43.45
2016-05-23T10:11:30.273Z,43.45
2016-05-23T10:12:31.479Z,44.13
2016-05-23T10:13:31.278Z,43.74
2016-05-23T10:14:30.344Z,44.3
2016-05-23T10:15:30.081Z,44.59
2016-05-23T10:16:31.053Z,44.78
2016-05-23T10:17:30.383Z,45.17
2016-05-23T10:18:30.291Z,45.44
2016-05-23T10:19:30.264Z,45.25
2016-05-23T10:20:30.313Z,46
2016-05-23T10:21:30.691Z,46
2016-05-23T10:22:32.052Z,46.39
2016-05-23T10:23:30.461Z,46.87
2016-05-23T10:24:30.589Z,46.58
2016-05-23T10:25:30.561Z,46.77
2016-05-23T10:26:30.641Z,46.87
2016-05-23T10:27:31.004Z,47.16
2016-05-23T10:28:30.710Z,47.36
2016-05-23T10:29:32.025Z,47.84
2016-05-23T10:30:30.793Z,47.55
2016-05-23T10:31:32.030Z,47.16
2016-05-23T10:32:31.346Z,47.64
2016-05-23T10:33:32.005Z,47.84
2016-05-23T10:34:32.881Z,47.26
2016-05-23T10:35:32.681Z,46.87
2016-05-23T10:36:33.606Z,47.72
2016-05-23T10:37:33.359Z,47.81
2016-05-23T10:38:33.689Z,47.91
2016-05-23T10:39:34.317Z,48.2
2016-05-23T10:40:33.304Z,48.2
2016-05-23T10:41:33.057Z,47.91
2016-05-23T10:42:33.559Z,48.2
2016-05-23T10:43:33.750Z,47.81
2016-05-23T10:44:32.611Z,48.39
2016-05-23T10:45:32.552Z,48.3
2016-05-23T10:46:32.695Z,48.39
2016-05-23T10:47:32.933Z,47.81
2016-05-23T10:48:31.857Z,47.62
2016-05-23T10:49:33.360Z,48.01
2016-05-23T10:50:35.659Z,48.66
2016-05-23T10:51:34.053Z,48.47
2016-05-23T10:52:33.180Z,49.05
2016-05-23T10:53:33.199Z,49.15
2016-05-23T10:54:35.061Z,49.92
2016-05-23T10:55:31.955Z,49.41
2016-05-23T10:56:32.394Z,49.73
2016-05-23T10:57:32.037Z,50.38
2016-05-23T10:58:32.821Z,50.76
2016-05-23T10:59:33.512Z,50.67
2016-05-23T11:00:33.061Z,51.15
2016-05-23T11:01:33.079Z,50.96
2016-05-23T11:02:32.848Z,51.25
2016-05-23T11:03:32.413Z,51.42
2016-05-23T11:04:33.791Z,51.71
2016-05-23T11:05:33.559Z,51.71
2016-05-23T11:06:32.765Z,51.83
2016-05-23T11:07:33.643Z,51.61
2016-05-23T11:08:33.005Z,52.02
2016-05-23T11:09:33.726Z,51.93
2016-05-23T11:10:32.792Z,51.54
2016-05-23T11:11:32.622Z,52.02
2016-05-23T11:12:33.781Z,52.22
2016-05-23T11:13:32.909Z,52.8
2016-05-23T11:14:33.505Z,51.81
2016-05-23T11:15:32.851Z,52.41
2016-05-23T11:16:32.901Z,52.31
2016-05-23T11:17:33.436Z,51.93
2016-05-23T11:18:32.985Z,51.64
2016-05-23T11:19:33.034Z,52.02
2016-05-23T11:20:33.084Z,51.93
2016-05-23T11:21:33.164Z,52.02
2016-05-23T11:22:33.167Z,52
2016-05-23T11:23:33.217Z,51.42
2016-05-23T11:24:33.266Z,52
2016-05-23T11:25:33.972Z,51.73
2016-05-23T11:26:34.116Z,51.9
2016-05-23T11:27:33.384Z,51.9
2016-05-23T11:28:33.511Z,51.9
2016-05-23T11:29:33.405Z,52
2016-05-23T11:30:33.533Z,51.9
2016-05-23T11:31:33.598Z,52.09
2016-05-23T11:32:33.616Z,52
2016-05-23T11:33:33.682Z,51.9
2016-05-23T11:34:33.825Z,52.09
2016-05-23T11:35:33.780Z,52.19
2016-05-23T11:36:34.221Z,52.48
2016-05-23T11:37:33.849Z,52.09
2016-05-23T11:38:34.023Z,52.67
2016-05-23T11:39:35.807Z,52.29
2016-05-23T11:40:34.637Z,52.58
2016-05-23T11:41:34.031Z,52.77
2016-05-23T11:42:34.096Z,52
2016-05-23T11:43:34.676Z,51.9
2016-05-23T11:44:34.164Z,51.9
2016-05-23T11:45:34.198Z,51.73
2016-05-23T11:46:34.247Z,51.71
2016-05-23T11:47:34.297Z,51.64
2016-05-23T11:48:34.190Z,51.54
2016-05-23T11:49:34.396Z,51.15
2016-05-23T11:50:34.430Z,51.06
2016-05-23T11:51:34.792Z,51.06
2016-05-23T11:52:34.701Z,51.35
2016-05-23T11:53:34.579Z,51.15
2016-05-23T11:54:34.878Z,51.15
2016-05-23T11:55:35.491Z,51.15
2016-05-23T11:56:36.258Z,51.25
2016-05-23T11:57:34.839Z,51.44
2016-05-23T11:58:35.624Z,51.15
2016-05-23T11:59:35.017Z,51.35
2016-05-23T12:00:35.145Z,51.15
2016-05-23T12:01:35.037Z,50.96
2016-05-23T12:02:35.212Z,51.06
2016-05-23T12:03:35.090Z,51.15
2016-05-23T12:04:35.562Z,51.15
2016-05-23T12:05:35.111Z,51.15
2016-05-23T12:06:35.521Z,51.44
2016-05-23T12:07:36.366Z,51.35
2016-05-23T12:08:35.338Z,51.13
2016-05-23T12:09:35.935Z,51.42
2016-05-23T12:10:35.641Z,50.93
2016-05-23T12:11:36.268Z,50.86
2016-05-23T12:12:36.411Z,51.64
2016-05-23T12:13:35.601Z,51.35
2016-05-23T12:14:38.510Z,50.67
2016-05-23T12:15:35.701Z,51.47
2016-05-23T12:16:36.297Z,50.79
2016-05-23T12:17:36.081Z,50.04
2016-05-23T12:18:36.333Z,49.85
2016-05-23T12:19:36.320Z,49.49
2016-05-23T12:20:36.370Z,49.39
2016-05-23T12:21:36.920Z,49.1
2016-05-23T12:22:36.017Z,47.96
2016-05-23T12:23:35.956Z,46.8
2016-05-23T12:24:36.459Z,46.89
2016-05-23T12:25:36.461Z,46.22
2016-05-23T12:26:36.871Z,46.22
2016-05-23T12:27:36.967Z,47.19
2016-05-23T12:28:37.017Z,46.87
2016-05-23T12:29:37.347Z,46.87
2016-05-23T12:30:37.428Z,46.67
2016-05-23T12:31:36.713Z,46.58
2016-05-23T12:32:36.777Z,46.97
2016-05-23T12:33:36.546Z,46.97
2016-05-23T12:34:37.001Z,46.77
2016-05-23T12:35:36.801Z,46.77
2016-05-23T12:36:36.913Z,46.97
2016-05-23T12:37:36.635Z,46.97
2016-05-23T12:38:36.982Z,46.97
2016-05-23T12:39:37.343Z,46.58
2016-05-23T12:40:37.329Z,46.97
2016-05-23T12:41:37.629Z,46.97
2016-05-23T12:42:36.867Z,46.97
2016-05-23T12:43:37.135Z,46.87
2016-05-23T12:44:36.966Z,47.06
2016-05-23T12:45:37.156Z,47.36
2016-05-23T12:46:37.003Z,46.99
2016-05-23T12:47:37.115Z,46.89
2016-05-23T12:48:37.274Z,46.8
2016-05-23T12:49:37.151Z,46.43
2016-05-23T12:50:37.231Z,45.39
2016-05-23T12:51:37.548Z,45.39
2016-05-23T12:52:37.628Z,45.51
2016-05-23T12:53:37.381Z,44.56
2016-05-23T12:54:37.665Z,44.37
2016-05-23T12:55:37.652Z,43.71
2016-05-23T12:56:37.497Z,43.51